sensor_id;sensor_type;location;lat;lon;timestamp;pressure;altitude;pressure_sealevel;temperature
65290;BMP180;51893;59.754;10.110;2023-08-08T00:01:55;98675.80;;;16.12
65290;BMP180;51893;59.754;10.110;2023-08-08T00:04:23;98677.60;;;16.20
65290;BMP180;51893;59.754;10.110;2023-08-08T00:06:51;98675.20;;;16.10
65290;BMP180;51893;59.754;10.110;2023-08-08T00:09:19;98676.20;;;16.10
65290;BMP180;51893;59.754;10.110;2023-08-08T00:11:46;98671.60;;;16.10
65290;BMP180;51893;59.754;10.110;2023-08-08T00:14:14;98670.20;;;16.20
65290;BMP180;51893;59.754;10.110;2023-08-08T00:16:42;98652.40;;;16.20
65290;BMP180;51893;59.754;10.110;2023-08-08T00:19:10;98648.60;;;16.22
65290;BMP180;51893;59.754;10.110;2023-08-08T00:21:38;98645.80;;;16.30
65290;BMP180;51893;59.754;10.110;2023-08-08T00:24:05;98642.40;;;16.20
65290;BMP180;51893;59.754;10.110;2023-08-08T00:26:33;98641.80;;;16.20
65290;BMP180;51893;59.754;10.110;2023-08-08T00:29:01;98646.20;;;16.20
65290;BMP180;51893;59.754;10.110;2023-08-08T00:31:29;98653.00;;;16.20
65290;BMP180;51893;59.754;10.110;2023-08-08T00:33:56;98659.40;;;16.20
65290;BMP180;51893;59.754;10.110;2023-08-08T00:36:24;98667.20;;;16.10
65290;BMP180;51893;59.754;10.110;2023-08-08T00:38:52;98664.00;;;16.10
65290;BMP180;51893;59.754;10.110;2023-08-08T00:41:20;98660.80;;;16.10
65290;BMP180;51893;59.754;10.110;2023-08-08T00:43:47;98654.80;;;16.10
65290;BMP180;51893;59.754;10.110;2023-08-08T00:46:21;98651.80;;;16.06
65290;BMP180;51893;59.754;10.110;2023-08-08T00:48:51;98649.20;;;16.10
65290;BMP180;51893;59.754;10.110;2023-08-08T00:51:20;98657.40;;;16.10
65290;BMP180;51893;59.754;10.110;2023-08-08T00:53:50;98646.20;;;16.10
65290;BMP180;51893;59.754;10.110;2023-08-08T00:56:19;98651.80;;;16.10
65290;BMP180;51893;59.754;10.110;2023-08-08T00:58:47;98656.40;;;16.10
65290;BMP180;51893;59.754;10.110;2023-08-08T01:01:17;98651.20;;;16.10
65290;BMP180;51893;59.754;10.110;2023-08-08T01:03:47;98653.00;;;16.12
65290;BMP180;51893;59.754;10.110;2023-08-08T01:06:23;98647.40;;;16.12
65290;BMP180;51893;59.754;10.110;2023-08-08T01:09:00;98643.60;;;16.20
65290;BMP180;51893;59.754;10.110;2023-08-08T01:11:34;98638.60;;;16.20
65290;BMP180;51893;59.754;10.110;2023-08-08T01:14:03;98638.40;;;16.20
65290;BMP180;51893;59.754;10.110;2023-08-08T01:16:33;98631.60;;;16.20
65290;BMP180;51893;59.754;10.110;2023-08-08T01:19:02;98635.20;;;16.20
65290;BMP180;51893;59.754;10.110;2023-08-08T01:21:33;98634.40;;;16.20
65290;BMP180;51893;59.754;10.110;2023-08-08T01:24:19;98625.00;;;16.20
65290;BMP180;51893;59.754;10.110;2023-08-08T01:26:49;98626.80;;;16.20
65290;BMP180;51893;59.754;10.110;2023-08-08T01:29:17;98623.80;;;16.20
65290;BMP180;51893;59.754;10.110;2023-08-08T01:31:46;98625.20;;;16.20
65290;BMP180;51893;59.754;10.110;2023-08-08T01:34:14;98629.40;;;16.24
65290;BMP180;51893;59.754;10.110;2023-08-08T01:39:17;98622.00;;;16.30
65290;BMP180;51893;59.754;10.110;2023-08-08T01:41:47;98619.20;;;16.30
65290;BMP180;51893;59.754;10.110;2023-08-08T01:44:16;98617.00;;;16.36
65290;BMP180;51893;59.754;10.110;2023-08-08T01:46:46;98617.20;;;16.40
65290;BMP180;51893;59.754;10.110;2023-08-08T01:49:15;98612.60;;;16.40
65290;BMP180;51893;59.754;10.110;2023-08-08T01:51:42;98613.00;;;16.40
65290;BMP180;51893;59.754;10.110;2023-08-08T01:54:10;98610.40;;;16.30
65290;BMP180;51893;59.754;10.110;2023-08-08T01:56:38;98615.20;;;16.30
65290;BMP180;51893;59.754;10.110;2023-08-08T01:59:06;98610.00;;;16.30
65290;BMP180;51893;59.754;10.110;2023-08-08T02:01:33;98603.20;;;16.28
65290;BMP180;51893;59.754;10.110;2023-08-08T02:04:02;98600.20;;;16.20
65290;BMP180;51893;59.754;10.110;2023-08-08T02:06:30;98609.20;;;16.20
65290;BMP180;51893;59.754;10.110;2023-08-08T02:08:58;98615.20;;;16.20
65290;BMP180;51893;59.754;10.110;2023-08-08T02:11:26;98613.00;;;16.20
65290;BMP180;51893;59.754;10.110;2023-08-08T02:13:54;98610.00;;;16.30
65290;BMP180;51893;59.754;10.110;2023-08-08T02:16:23;98605.80;;;16.30
65290;BMP180;51893;59.754;10.110;2023-08-08T02:18:51;98605.20;;;16.30
65290;BMP180;51893;59.754;10.110;2023-08-08T02:21:19;98598.80;;;16.30
65290;BMP180;51893;59.754;10.110;2023-08-08T02:23:47;98597.00;;;16.30
65290;BMP180;51893;59.754;10.110;2023-08-08T02:26:15;98593.40;;;16.30
65290;BMP180;51893;59.754;10.110;2023-08-08T02:28:42;98588.60;;;16.30
65290;BMP180;51893;59.754;10.110;2023-08-08T02:31:11;98586.40;;;16.24
65290;BMP180;51893;59.754;10.110;2023-08-08T02:33:39;98585.80;;;16.20
65290;BMP180;51893;59.754;10.110;2023-08-08T02:36:07;98581.20;;;16.20
65290;BMP180;51893;59.754;10.110;2023-08-08T02:38:34;98576.00;;;16.12
65290;BMP180;51893;59.754;10.110;2023-08-08T02:41:02;98572.60;;;16.12
65290;BMP180;51893;59.754;10.110;2023-08-08T02:43:30;98571.00;;;16.12
65290;BMP180;51893;59.754;10.110;2023-08-08T02:45:57;98575.80;;;16.20
65290;BMP180;51893;59.754;10.110;2023-08-08T02:48:27;98573.20;;;16.20
65290;BMP180;51893;59.754;10.110;2023-08-08T02:50:55;98564.40;;;16.30
65290;BMP180;51893;59.754;10.110;2023-08-08T02:53:23;98561.00;;;16.30
65290;BMP180;51893;59.754;10.110;2023-08-08T02:55:50;98560.60;;;16.30
65290;BMP180;51893;59.754;10.110;2023-08-08T02:58:18;98564.80;;;16.20
65290;BMP180;51893;59.754;10.110;2023-08-08T03:00:46;98563.60;;;16.20
65290;BMP180;51893;59.754;10.110;2023-08-08T03:03:13;98558.40;;;16.20
65290;BMP180;51893;59.754;10.110;2023-08-08T03:05:43;98558.20;;;16.10
65290;BMP180;51893;59.754;10.110;2023-08-08T03:08:12;98558.00;;;16.10
65290;BMP180;51893;59.754;10.110;2023-08-08T03:10:39;98559.60;;;16.00
65290;BMP180;51893;59.754;10.110;2023-08-08T03:13:08;98565.00;;;16.10
65290;BMP180;51893;59.754;10.110;2023-08-08T03:15:36;98558.40;;;16.10
65290;BMP180;51893;59.754;10.110;2023-08-08T03:18:04;98554.60;;;16.10
65290;BMP180;51893;59.754;10.110;2023-08-08T03:20:32;98555.80;;;16.10
65290;BMP180;51893;59.754;10.110;2023-08-08T03:23:00;98553.40;;;16.18
65290;BMP180;51893;59.754;10.110;2023-08-08T03:25:28;98541.80;;;16.20
65290;BMP180;51893;59.754;10.110;2023-08-08T03:27:56;98538.00;;;16.20
65290;BMP180;51893;59.754;10.110;2023-08-08T03:30:23;98538.40;;;16.20
65290;BMP180;51893;59.754;10.110;2023-08-08T03:32:51;98538.00;;;16.20
65290;BMP180;51893;59.754;10.110;2023-08-08T03:35:19;98529.40;;;16.12
65290;BMP180;51893;59.754;10.110;2023-08-08T03:37:47;98529.00;;;16.10
65290;BMP180;51893;59.754;10.110;2023-08-08T03:40:15;98529.80;;;16.00
65290;BMP180;51893;59.754;10.110;2023-08-08T03:42:43;98520.20;;;16.00
65290;BMP180;51893;59.754;10.110;2023-08-08T03:45:11;98519.60;;;15.96
65290;BMP180;51893;59.754;10.110;2023-08-08T03:47:39;98523.20;;;15.90
65290;BMP180;51893;59.754;10.110;2023-08-08T03:50:07;98519.40;;;15.90
65290;BMP180;51893;59.754;10.110;2023-08-08T03:52:36;98517.20;;;15.90
65290;BMP180;51893;59.754;10.110;2023-08-08T03:55:05;98517.20;;;16.00
65290;BMP180;51893;59.754;10.110;2023-08-08T03:57:33;98514.20;;;16.00
65290;BMP180;51893;59.754;10.110;2023-08-08T04:00:01;98515.40;;;16.00
65290;BMP180;51893;59.754;10.110;2023-08-08T04:02:29;98510.80;;;16.00
65290;BMP180;51893;59.754;10.110;2023-08-08T04:04:58;98510.40;;;16.00
65290;BMP180;51893;59.754;10.110;2023-08-08T04:07:26;98505.80;;;16.00
65290;BMP180;51893;59.754;10.110;2023-08-08T04:09:53;98502.00;;;16.00
65290;BMP180;51893;59.754;10.110;2023-08-08T04:12:21;98494.20;;;16.00
65290;BMP180;51893;59.754;10.110;2023-08-08T04:14:49;98495.20;;;16.00
65290;BMP180;51893;59.754;10.110;2023-08-08T04:17:17;98494.20;;;16.00
65290;BMP180;51893;59.754;10.110;2023-08-08T04:19:45;98498.20;;;16.00
65290;BMP180;51893;59.754;10.110;2023-08-08T04:22:12;98494.00;;;16.04
65290;BMP180;51893;59.754;10.110;2023-08-08T04:24:40;98487.80;;;16.10
65290;BMP180;51893;59.754;10.110;2023-08-08T04:27:08;98485.00;;;16.10
65290;BMP180;51893;59.754;10.110;2023-08-08T04:29:37;98480.40;;;16.00
65290;BMP180;51893;59.754;10.110;2023-08-08T04:32:05;98480.40;;;16.00
65290;BMP180;51893;59.754;10.110;2023-08-08T04:34:33;98480.40;;;16.00
65290;BMP180;51893;59.754;10.110;2023-08-08T04:37:01;98473.60;;;16.00
65290;BMP180;51893;59.754;10.110;2023-08-08T04:39:28;98467.00;;;16.00
65290;BMP180;51893;59.754;10.110;2023-08-08T04:41:57;98470.00;;;16.00
65290;BMP180;51893;59.754;10.110;2023-08-08T04:44:26;98466.60;;;16.02
65290;BMP180;51893;59.754;10.110;2023-08-08T04:46:55;98462.60;;;16.10
65290;BMP180;51893;59.754;10.110;2023-08-08T04:49:23;98457.60;;;16.10
65290;BMP180;51893;59.754;10.110;2023-08-08T04:51:51;98459.80;;;16.10
65290;BMP180;51893;59.754;10.110;2023-08-08T04:54:19;98457.80;;;16.10
65290;BMP180;51893;59.754;10.110;2023-08-08T04:56:46;98457.60;;;16.20
65290;BMP180;51893;59.754;10.110;2023-08-08T04:59:14;98456.60;;;16.20
65290;BMP180;51893;59.754;10.110;2023-08-08T05:01:42;98450.20;;;16.22
65290;BMP180;51893;59.754;10.110;2023-08-08T05:04:10;98450.20;;;16.22
65290;BMP180;51893;59.754;10.110;2023-08-08T05:06:38;98447.20;;;16.22
65290;BMP180;51893;59.754;10.110;2023-08-08T05:09:05;98445.40;;;16.20
65290;BMP180;51893;59.754;10.110;2023-08-08T05:11:36;98445.80;;;16.20
65290;BMP180;51893;59.754;10.110;2023-08-08T05:14:04;98440.40;;;16.20
65290;BMP180;51893;59.754;10.110;2023-08-08T05:16:32;98438.80;;;16.18
65290;BMP180;51893;59.754;10.110;2023-08-08T05:19:00;98438.20;;;16.20
65290;BMP180;51893;59.754;10.110;2023-08-08T05:21:28;98437.00;;;16.20
65290;BMP180;51893;59.754;10.110;2023-08-08T05:23:56;98432.40;;;16.20
65290;BMP180;51893;59.754;10.110;2023-08-08T05:26:24;98424.00;;;16.20
65290;BMP180;51893;59.754;10.110;2023-08-08T05:28:52;98433.40;;;16.26
65290;BMP180;51893;59.754;10.110;2023-08-08T05:31:20;98429.60;;;16.20
65290;BMP180;51893;59.754;10.110;2023-08-08T05:33:49;98427.20;;;16.24
65290;BMP180;51893;59.754;10.110;2023-08-08T05:36:17;98420.40;;;16.30
65290;BMP180;51893;59.754;10.110;2023-08-08T05:38:45;98413.20;;;16.30
65290;BMP180;51893;59.754;10.110;2023-08-08T05:41:13;98409.00;;;16.30
65290;BMP180;51893;59.754;10.110;2023-08-08T05:43:41;98404.40;;;16.32
65290;BMP180;51893;59.754;10.110;2023-08-08T05:46:09;98396.80;;;16.40
65290;BMP180;51893;59.754;10.110;2023-08-08T05:48:37;98402.20;;;16.40
65290;BMP180;51893;59.754;10.110;2023-08-08T05:51:05;98405.40;;;16.50
65290;BMP180;51893;59.754;10.110;2023-08-08T05:53:33;98403.40;;;16.50
65290;BMP180;51893;59.754;10.110;2023-08-08T05:56:01;98394.80;;;16.50
65290;BMP180;51893;59.754;10.110;2023-08-08T05:58:29;98394.20;;;16.50
65290;BMP180;51893;59.754;10.110;2023-08-08T06:00:56;98397.20;;;16.50
65290;BMP180;51893;59.754;10.110;2023-08-08T06:03:24;98395.00;;;16.50
65290;BMP180;51893;59.754;10.110;2023-08-08T06:05:52;98398.40;;;16.50
65290;BMP180;51893;59.754;10.110;2023-08-08T06:08:20;98398.60;;;16.50
65290;BMP180;51893;59.754;10.110;2023-08-08T06:10:48;98399.40;;;16.50
65290;BMP180;51893;59.754;10.110;2023-08-08T06:13:16;98395.00;;;16.50
65290;BMP180;51893;59.754;10.110;2023-08-08T06:15:43;98397.00;;;16.50
65290;BMP180;51893;59.754;10.110;2023-08-08T06:18:11;98391.00;;;16.50
65290;BMP180;51893;59.754;10.110;2023-08-08T06:20:39;98381.80;;;16.50
65290;BMP180;51893;59.754;10.110;2023-08-08T06:23:07;98382.80;;;16.50
65290;BMP180;51893;59.754;10.110;2023-08-08T06:25:35;98382.20;;;16.50
65290;BMP180;51893;59.754;10.110;2023-08-08T06:28:02;98383.00;;;16.50
65290;BMP180;51893;59.754;10.110;2023-08-08T06:30:30;98377.40;;;16.54
65290;BMP180;51893;59.754;10.110;2023-08-08T06:32:58;98375.00;;;16.60
65290;BMP180;51893;59.754;10.110;2023-08-08T06:35:26;98375.80;;;16.64
65290;BMP180;51893;59.754;10.110;2023-08-08T06:37:54;98369.40;;;16.70
65290;BMP180;51893;59.754;10.110;2023-08-08T06:40:22;98370.40;;;16.70
65290;BMP180;51893;59.754;10.110;2023-08-08T06:42:51;98363.80;;;16.78
65290;BMP180;51893;59.754;10.110;2023-08-08T06:45:19;98363.40;;;16.80
65290;BMP180;51893;59.754;10.110;2023-08-08T06:47:47;98359.40;;;16.80
65290;BMP180;51893;59.754;10.110;2023-08-08T06:50:15;98349.60;;;16.80
65290;BMP180;51893;59.754;10.110;2023-08-08T06:52:45;98352.20;;;16.82
65290;BMP180;51893;59.754;10.110;2023-08-08T06:55:13;98348.60;;;16.86
65290;BMP180;51893;59.754;10.110;2023-08-08T06:57:41;98341.00;;;16.90
65290;BMP180;51893;59.754;10.110;2023-08-08T07:00:09;98338.20;;;16.90
65290;BMP180;51893;59.754;10.110;2023-08-08T07:02:41;98333.80;;;16.92
65290;BMP180;51893;59.754;10.110;2023-08-08T07:05:09;98331.80;;;17.00
65290;BMP180;51893;59.754;10.110;2023-08-08T07:07:37;98327.60;;;17.00
65290;BMP180;51893;59.754;10.110;2023-08-08T07:10:06;98324.00;;;17.00
65290;BMP180;51893;59.754;10.110;2023-08-08T07:12:34;98320.00;;;17.10
65290;BMP180;51893;59.754;10.110;2023-08-08T07:15:03;98318.00;;;17.10
65290;BMP180;51893;59.754;10.110;2023-08-08T07:17:31;98321.40;;;17.08
65290;BMP180;51893;59.754;10.110;2023-08-08T07:19:59;98323.40;;;17.00
65290;BMP180;51893;59.754;10.110;2023-08-08T07:22:26;98320.20;;;17.04
65290;BMP180;51893;59.754;10.110;2023-08-08T07:24:54;98316.60;;;17.10
65290;BMP180;51893;59.754;10.110;2023-08-08T07:27:22;98310.60;;;17.10
65290;BMP180;51893;59.754;10.110;2023-08-08T07:29:50;98309.60;;;17.10
65290;BMP180;51893;59.754;10.110;2023-08-08T07:32:20;98306.60;;;17.10
65290;BMP180;51893;59.754;10.110;2023-08-08T07:34:48;98303.60;;;17.14
65290;BMP180;51893;59.754;10.110;2023-08-08T07:37:16;98303.40;;;17.18
65290;BMP180;51893;59.754;10.110;2023-08-08T07:39:44;98299.20;;;17.20
65290;BMP180;51893;59.754;10.110;2023-08-08T07:42:11;98292.40;;;17.12
65290;BMP180;51893;59.754;10.110;2023-08-08T07:44:39;98291.80;;;17.10
65290;BMP180;51893;59.754;10.110;2023-08-08T07:47:07;98286.80;;;17.10
65290;BMP180;51893;59.754;10.110;2023-08-08T07:49:37;98282.40;;;17.10
65290;BMP180;51893;59.754;10.110;2023-08-08T07:52:05;98281.20;;;17.10
65290;BMP180;51893;59.754;10.110;2023-08-08T07:54:34;98278.60;;;17.10
65290;BMP180;51893;59.754;10.110;2023-08-08T07:57:02;98269.40;;;17.10
65290;BMP180;51893;59.754;10.110;2023-08-08T07:59:31;98267.40;;;17.18
65290;BMP180;51893;59.754;10.110;2023-08-08T08:01:59;98261.80;;;17.20
65290;BMP180;51893;59.754;10.110;2023-08-08T08:04:27;98262.60;;;17.20
65290;BMP180;51893;59.754;10.110;2023-08-08T08:06:55;98260.80;;;17.20
65290;BMP180;51893;59.754;10.110;2023-08-08T08:09:23;98256.00;;;17.20
65290;BMP180;51893;59.754;10.110;2023-08-08T08:11:51;98252.20;;;17.20
65290;BMP180;51893;59.754;10.110;2023-08-08T08:14:19;98251.20;;;17.20
65290;BMP180;51893;59.754;10.110;2023-08-08T08:16:48;98252.40;;;17.20
65290;BMP180;51893;59.754;10.110;2023-08-08T08:19:17;98251.40;;;17.20
65290;BMP180;51893;59.754;10.110;2023-08-08T08:21:44;98253.00;;;17.10
65290;BMP180;51893;59.754;10.110;2023-08-08T08:24:12;98253.40;;;17.10
65290;BMP180;51893;59.754;10.110;2023-08-08T08:26:40;98251.80;;;17.00
65290;BMP180;51893;59.754;10.110;2023-08-08T08:29:08;98247.60;;;17.00
65290;BMP180;51893;59.754;10.110;2023-08-08T08:31:35;98243.40;;;17.00
65290;BMP180;51893;59.754;10.110;2023-08-08T08:34:05;98239.40;;;17.00
65290;BMP180;51893;59.754;10.110;2023-08-08T08:36:32;98237.60;;;17.00
65290;BMP180;51893;59.754;10.110;2023-08-08T08:39:00;98233.00;;;17.10
65290;BMP180;51893;59.754;10.110;2023-08-08T08:41:30;98227.80;;;17.10
65290;BMP180;51893;59.754;10.110;2023-08-08T08:43:59;98228.00;;;17.10
65290;BMP180;51893;59.754;10.110;2023-08-08T08:46:29;98215.00;;;17.16
65290;BMP180;51893;59.754;10.110;2023-08-08T08:48:58;98212.00;;;17.14
65290;BMP180;51893;59.754;10.110;2023-08-08T08:51:27;98208.00;;;17.20
65290;BMP180;51893;59.754;10.110;2023-08-08T08:53:56;98201.20;;;17.20
65290;BMP180;51893;59.754;10.110;2023-08-08T08:56:26;98196.00;;;17.30
65290;BMP180;51893;59.754;10.110;2023-08-08T08:58:55;98196.20;;;17.30
65290;BMP180;51893;59.754;10.110;2023-08-08T09:01:23;98193.80;;;17.30
65290;BMP180;51893;59.754;10.110;2023-08-08T09:03:51;98185.80;;;17.32
65290;BMP180;51893;59.754;10.110;2023-08-08T09:06:19;98180.80;;;17.40
65290;BMP180;51893;59.754;10.110;2023-08-08T09:08:48;98170.80;;;17.38
65290;BMP180;51893;59.754;10.110;2023-08-08T09:11:21;98160.20;;;17.30
65290;BMP180;51893;59.754;10.110;2023-08-08T09:13:51;98144.00;;;17.30
65290;BMP180;51893;59.754;10.110;2023-08-08T09:16:19;98136.60;;;17.30
65290;BMP180;51893;59.754;10.110;2023-08-08T09:18:48;98135.40;;;17.30
65290;BMP180;51893;59.754;10.110;2023-08-08T09:21:16;98128.60;;;17.30
65290;BMP180;51893;59.754;10.110;2023-08-08T09:23:44;98131.20;;;17.20
65290;BMP180;51893;59.754;10.110;2023-08-08T09:26:13;98125.00;;;17.20
65290;BMP180;51893;59.754;10.110;2023-08-08T09:28:43;98117.40;;;17.20
65290;BMP180;51893;59.754;10.110;2023-08-08T09:31:11;98109.60;;;17.20
65290;BMP180;51893;59.754;10.110;2023-08-08T09:33:39;98111.60;;;17.30
65290;BMP180;51893;59.754;10.110;2023-08-08T09:36:07;98105.00;;;17.30
65290;BMP180;51893;59.754;10.110;2023-08-08T09:38:41;98104.80;;;17.30
65290;BMP180;51893;59.754;10.110;2023-08-08T09:41:09;98100.60;;;17.40
65290;BMP180;51893;59.754;10.110;2023-08-08T09:43:37;98102.20;;;17.40
65290;BMP180;51893;59.754;10.110;2023-08-08T09:46:05;98100.80;;;17.50
65290;BMP180;51893;59.754;10.110;2023-08-08T09:48:33;98096.00;;;17.50
65290;BMP180;51893;59.754;10.110;2023-08-08T09:51:02;98099.40;;;17.50
65290;BMP180;51893;59.754;10.110;2023-08-08T09:53:30;98091.60;;;17.60
65290;BMP180;51893;59.754;10.110;2023-08-08T09:56:00;98091.00;;;17.60
65290;BMP180;51893;59.754;10.110;2023-08-08T09:58:27;98092.40;;;17.70
65290;BMP180;51893;59.754;10.110;2023-08-08T10:00:56;98090.20;;;17.70
65290;BMP180;51893;59.754;10.110;2023-08-08T10:03:24;98092.80;;;17.80
65290;BMP180;51893;59.754;10.110;2023-08-08T10:05:54;98093.00;;;17.86
65290;BMP180;51893;59.754;10.110;2023-08-08T10:08:22;98090.80;;;17.90
65290;BMP180;51893;59.754;10.110;2023-08-08T10:10:51;98087.00;;;17.94
65290;BMP180;51893;59.754;10.110;2023-08-08T10:13:24;98089.80;;;17.96
65290;BMP180;51893;59.754;10.110;2023-08-08T10:15:54;98086.00;;;18.00
65290;BMP180;51893;59.754;10.110;2023-08-08T10:18:23;98081.00;;;18.00
65290;BMP180;51893;59.754;10.110;2023-08-08T10:20:51;98075.40;;;17.92
65290;BMP180;51893;59.754;10.110;2023-08-08T10:23:21;98069.00;;;17.90
65290;BMP180;51893;59.754;10.110;2023-08-08T10:25:51;98067.00;;;18.00
65290;BMP180;51893;59.754;10.110;2023-08-08T10:28:21;98061.20;;;18.10
65290;BMP180;51893;59.754;10.110;2023-08-08T10:30:57;98061.20;;;18.10
65290;BMP180;51893;59.754;10.110;2023-08-08T10:33:28;98056.00;;;18.20
65290;BMP180;51893;59.754;10.110;2023-08-08T10:36:02;98049.00;;;18.10
65290;BMP180;51893;59.754;10.110;2023-08-08T10:38:50;98049.20;;;18.10
65290;BMP180;51893;59.754;10.110;2023-08-08T10:41:22;98045.60;;;18.10
65290;BMP180;51893;59.754;10.110;2023-08-08T10:43:57;98042.80;;;18.10
65290;BMP180;51893;59.754;10.110;2023-08-08T10:46:26;98040.60;;;18.10
65290;BMP180;51893;59.754;10.110;2023-08-08T10:49:00;98035.00;;;18.18
65290;BMP180;51893;59.754;10.110;2023-08-08T10:51:40;98033.80;;;18.10
65290;BMP180;51893;59.754;10.110;2023-08-08T10:56:48;98037.00;;;18.08
65290;BMP180;51893;59.754;10.110;2023-08-08T10:59:20;98040.00;;;18.00
65290;BMP180;51893;59.754;10.110;2023-08-08T11:01:52;98045.80;;;18.00
65290;BMP180;51893;59.754;10.110;2023-08-08T11:04:22;98047.60;;;18.00
65290;BMP180;51893;59.754;10.110;2023-08-08T11:06:53;98044.80;;;17.92
65290;BMP180;51893;59.754;10.110;2023-08-08T11:09:22;98045.40;;;17.90
65290;BMP180;51893;59.754;10.110;2023-08-08T11:11:51;98046.40;;;17.90
65290;BMP180;51893;59.754;10.110;2023-08-08T11:14:20;98045.40;;;17.86
65290;BMP180;51893;59.754;10.110;2023-08-08T11:16:50;98044.60;;;17.82
65290;BMP180;51893;59.754;10.110;2023-08-08T11:19:20;98051.00;;;17.80
65290;BMP180;51893;59.754;10.110;2023-08-08T11:21:49;98047.60;;;17.80
65290;BMP180;51893;59.754;10.110;2023-08-08T11:24:17;98045.40;;;17.80
65290;BMP180;51893;59.754;10.110;2023-08-08T11:26:45;98042.60;;;17.80
65290;BMP180;51893;59.754;10.110;2023-08-08T11:29:15;98044.80;;;17.70
65290;BMP180;51893;59.754;10.110;2023-08-08T11:31:43;98044.40;;;17.80
65290;BMP180;51893;59.754;10.110;2023-08-08T11:34:11;98045.20;;;17.80
65290;BMP180;51893;59.754;10.110;2023-08-08T11:36:40;98046.40;;;17.80
65290;BMP180;51893;59.754;10.110;2023-08-08T11:39:08;98045.00;;;17.88
65290;BMP180;51893;59.754;10.110;2023-08-08T11:41:38;98045.60;;;17.90
65290;BMP180;51893;59.754;10.110;2023-08-08T11:44:08;98048.60;;;17.90
65290;BMP180;51893;59.754;10.110;2023-08-08T11:46:44;98049.60;;;18.00
65290;BMP180;51893;59.754;10.110;2023-08-08T11:49:16;98045.80;;;18.00
65290;BMP180;51893;59.754;10.110;2023-08-08T11:51:45;98046.60;;;18.10
65290;BMP180;51893;59.754;10.110;2023-08-08T11:54:14;98040.60;;;18.20
65290;BMP180;51893;59.754;10.110;2023-08-08T11:56:43;98045.60;;;18.20
65290;BMP180;51893;59.754;10.110;2023-08-08T11:59:11;98040.00;;;18.20
65290;BMP180;51893;59.754;10.110;2023-08-08T12:01:41;98040.80;;;18.24
65290;BMP180;51893;59.754;10.110;2023-08-08T12:04:09;98041.00;;;18.24
65290;BMP180;51893;59.754;10.110;2023-08-08T12:06:38;98037.60;;;18.30
65290;BMP180;51893;59.754;10.110;2023-08-08T12:09:12;98039.60;;;18.30
65290;BMP180;51893;59.754;10.110;2023-08-08T12:11:43;98035.40;;;18.30
65290;BMP180;51893;59.754;10.110;2023-08-08T12:14:13;98034.40;;;18.30
65290;BMP180;51893;59.754;10.110;2023-08-08T12:16:44;98033.80;;;18.30
65290;BMP180;51893;59.754;10.110;2023-08-08T12:19:12;98030.00;;;18.30
65290;BMP180;51893;59.754;10.110;2023-08-08T12:21:42;98028.40;;;18.30
65290;BMP180;51893;59.754;10.110;2023-08-08T12:24:10;98018.40;;;18.40
65290;BMP180;51893;59.754;10.110;2023-08-08T12:26:38;98019.00;;;18.40
65290;BMP180;51893;59.754;10.110;2023-08-08T12:29:05;98021.40;;;18.44
65290;BMP180;51893;59.754;10.110;2023-08-08T12:31:33;98015.00;;;18.50
65290;BMP180;51893;59.754;10.110;2023-08-08T12:34:02;98020.40;;;18.50
65290;BMP180;51893;59.754;10.110;2023-08-08T12:36:33;98025.00;;;18.50
65290;BMP180;51893;59.754;10.110;2023-08-08T12:39:01;98021.20;;;18.60
65290;BMP180;51893;59.754;10.110;2023-08-08T12:41:29;98020.00;;;18.60
65290;BMP180;51893;59.754;10.110;2023-08-08T12:43:57;98016.60;;;18.70
65290;BMP180;51893;59.754;10.110;2023-08-08T12:46:25;98015.40;;;18.80
65290;BMP180;51893;59.754;10.110;2023-08-08T12:48:52;98015.40;;;18.80
65290;BMP180;51893;59.754;10.110;2023-08-08T12:51:20;98013.60;;;18.90
65290;BMP180;51893;59.754;10.110;2023-08-08T12:53:48;98014.20;;;18.90
65290;BMP180;51893;59.754;10.110;2023-08-08T12:56:16;98012.40;;;18.90
65290;BMP180;51893;59.754;10.110;2023-08-08T12:58:44;98012.20;;;18.90
65290;BMP180;51893;59.754;10.110;2023-08-08T13:01:12;98012.40;;;18.90
65290;BMP180;51893;59.754;10.110;2023-08-08T13:03:39;98009.60;;;18.92
65290;BMP180;51893;59.754;10.110;2023-08-08T13:06:14;98009.80;;;18.98
65290;BMP180;51893;59.754;10.110;2023-08-08T13:08:42;98008.40;;;19.00
65290;BMP180;51893;59.754;10.110;2023-08-08T13:11:10;98004.60;;;19.00
65290;BMP180;51893;59.754;10.110;2023-08-08T13:13:39;98007.40;;;19.10
65290;BMP180;51893;59.754;10.110;2023-08-08T13:16:07;98006.40;;;19.10
65290;BMP180;51893;59.754;10.110;2023-08-08T13:18:35;98012.60;;;19.10
65290;BMP180;51893;59.754;10.110;2023-08-08T13:21:03;98014.20;;;19.10
65290;BMP180;51893;59.754;10.110;2023-08-08T13:23:33;98016.20;;;19.10
65290;BMP180;51893;59.754;10.110;2023-08-08T13:26:01;98014.00;;;19.00
65290;BMP180;51893;59.754;10.110;2023-08-08T13:28:31;98012.00;;;19.00
65290;BMP180;51893;59.754;10.110;2023-08-08T13:30:59;98012.80;;;19.04
65290;BMP180;51893;59.754;10.110;2023-08-08T13:33:27;98010.40;;;19.10
65290;BMP180;51893;59.754;10.110;2023-08-08T13:35:55;98007.00;;;19.04
65290;BMP180;51893;59.754;10.110;2023-08-08T13:38:22;98002.80;;;19.02
65290;BMP180;51893;59.754;10.110;2023-08-08T13:40:52;98002.00;;;19.08
65290;BMP180;51893;59.754;10.110;2023-08-08T13:43:21;98002.80;;;19.04
65290;BMP180;51893;59.754;10.110;2023-08-08T13:45:49;98006.60;;;19.02
65290;BMP180;51893;59.754;10.110;2023-08-08T13:48:17;98009.00;;;19.10
65290;BMP180;51893;59.754;10.110;2023-08-08T13:50:45;98008.00;;;19.10
65290;BMP180;51893;59.754;10.110;2023-08-08T13:53:13;98005.20;;;19.10
65290;BMP180;51893;59.754;10.110;2023-08-08T13:55:41;98006.00;;;19.10
65290;BMP180;51893;59.754;10.110;2023-08-08T13:58:12;98004.40;;;19.20
65290;BMP180;51893;59.754;10.110;2023-08-08T14:00:39;98004.40;;;19.20
65290;BMP180;51893;59.754;10.110;2023-08-08T14:03:07;98000.60;;;19.20
65290;BMP180;51893;59.754;10.110;2023-08-08T14:05:36;98002.00;;;19.20
65290;BMP180;51893;59.754;10.110;2023-08-08T14:08:05;98004.00;;;19.20
65290;BMP180;51893;59.754;10.110;2023-08-08T14:10:34;98001.60;;;19.30